Royal Princess — ZCDV2 — position and weather

sailwx.info

Track history (hours):
 
Tides and Currents Weather Stations Pressure Air Temp Water Temp Dewpoint Dewpoint Depression Visibility Wind Speed Wind Dir Waves Ship Positions

Royal Princess

Last reported at 2017-Dec-17 08:00 UTC. Time now 2017-Dec-17 10:02 UTC.
Position N 12°06' W 067°42'.

Type: Passenger vessel. MMSI: 310530000.

Wind from 090 at 23 knots

Barometer 1012.3 mb
Air temperature 26.5 ° C
Visibility: greater than 10.8 NM
Water temperature 28.0 ° C

Date/timePositionNaut miles runAvg speedWind from/ knotsBaromVisibWave heightAir tempDewpointWater temp
2017-Dec-17 08:00N 12°06' W 067°42'3010.0 090 / 231012.310.8 26.5 28.0
2017-Dec-17 05:00N 12°12' W 067°12'4715.8 270 / 181014.410.8 26.5 28.0
2017-Dec-17 02:00N 12°18' W 066°24'14215.8 060 / 101014.127.0 26.7 28.0
2017-Dec-16 17:00N 12°36' W 064°00'3014.9 080 / 101014.9 5.4 27.5 29.0
2017-Dec-16 15:00N 12°42' W 063°30'13016.2 050 / 151016.210.8 27.5 28.0
2017-Dec-16 07:00N 13°00' W 061°18'100 7.7 030 / 181013.510.8 26.3 28.0
2017-Dec-15 18:00N 13°06' W 059°36'0 0.0 070 / 101013.810.8 33.0 29.0
2017-Dec-15 15:00N 13°06' W 059°36'0 0.0 070 / 81016.310.8 31.0 29.0
2017-Dec-15 11:00N 13°06' W 059°36'0 0.0 090 / 51015.710.8 25.5 29.0
2017-Dec-15 07:00N 13°06' W 059°36'0 0.0 1014.410.8 24.0 28.0
2017-Dec-15 04:00N 13°06' W 059°36'0 0.0 090 / 101014.9 5.4 24.0 28.0
2017-Dec-15 03:00N 13°06' W 059°36'0 0.0 1015.710.8 25.2 29.0
2017-Dec-14 23:00N 13°06' W 059°36'0 0.0 090 / 51014.910.8 26.5 29.0
2017-Dec-14 20:00N 13°06' W 059°36'0 0.0 090 / 131013.5 5.4 34.0 28.5
2017-Dec-14 13:00N 13°06' W 059°36'0 0.0 330 / 12 27.0 28.0
2017-Dec-14 12:00N 13°06' W 059°36'100 2.7 1015.910.8 24.0 28.0
2017-Dec-12 22:23N 14°02' W 061°02'  
2017-Dec-10 17:17N 16°49' W 062°52'3 9.1
2017-Dec-10 16:58N 16°49' W 062°49'11 8.6
2017-Dec-10 15:40N 16°42' W 062°41'1 9.4
2017-Dec-10 15:30N 16°40' W 062°40'5 9.4
2017-Dec-10 15:00N 16°36' W 062°38'5 9.2
2017-Dec-10 14:30N 16°32' W 062°35'5 9.2
2017-Dec-10 14:00N 16°28' W 062°33'5 9.2
2017-Dec-10 13:30N 16°24' W 062°30'5 9.3
2017-Dec-10 12:58N 16°20' W 062°28'4 9.1
2017-Dec-10 12:31N 16°16' W 062°25'5 9.1
2017-Dec-10 11:58N 16°12' W 062°23'98 9.3
2017-Dec-10 01:29N 14°48' W 061°32'7 9.2
2017-Dec-10 00:43N 14°41' W 061°29'2 9.1
2017-Dec-10 00:31N 14°40' W 061°28'4 8.7
2017-Dec-10 00:01N 14°37' W 061°25'4 8.2
2017-Dec-09 23:31N 14°35' W 061°21'5 9.2
2017-Dec-09 22:57N 14°35' W 061°16'4 9.8
2017-Dec-09 22:31N 14°35' W 061°11'5 9.8
2017-Dec-09 22:00N 14°35' W 061°06'2 3.4
2017-Dec-09 21:29N 14°36' W 061°04'0 0.0
2017-Dec-09 20:59N 14°36' W 061°04'0 0.0
2017-Dec-09 20:26N 14°36' W 061°04'0 0.0
2017-Dec-09 19:56N 14°36' W 061°04'0 0.0
2017-Dec-09 19:29N 14°36' W 061°04'0 0.0
2017-Dec-09 18:56N 14°36' W 061°04'0 0.0
2017-Dec-09 18:29N 14°36' W 061°04'0 0.0
2017-Dec-09 17:59N 14°36' W 061°04'0 0.0
2017-Dec-09 17:29N 14°36' W 061°04'0 0.0
2017-Dec-09 16:59N 14°36' W 061°04'0 0.0
2017-Dec-09 16:29N 14°36' W 061°04'0 0.0
2017-Dec-09 15:56N 14°36' W 061°04'0 0.0
2017-Dec-09 15:23N 14°36' W 061°04'0 0.0
2017-Dec-09 14:56N 14°36' W 061°04'0 0.0
2017-Dec-09 14:29N 14°36' W 061°04'0 0.0
2017-Dec-09 13:59N 14°36' W 061°04'0 0.0
2017-Dec-09 13:29N 14°36' W 061°04'0 0.0
2017-Dec-09 12:56N 14°36' W 061°04'0 0.0
2017-Dec-09 12:29N 14°36' W 061°04'0 0.0
2017-Dec-09 11:59N 14°36' W 061°04'1 2.7
2017-Dec-09 11:27N 14°35' W 061°06'3 7.2
2017-Dec-09 11:00N 14°35' W 061°09'4013.2
2017-Dec-09 08:00N 15°08' W 061°32'1113.9
2017-Dec-09 07:14N 15°17' W 061°38'314.2
2017-Dec-09 07:00N 15°20' W 061°40'1014.6
2017-Dec-09 06:17N 15°29' W 061°45'4013.8
2017-Dec-09 03:24N 16°03' W 062°06'614.0
2017-Dec-09 02:58N 16°08' W 062°10'614.0
2017-Dec-09 02:30N 16°14' W 062°13'714.0
2017-Dec-09 02:00N 16°20' W 062°17'714.0
2017-Dec-09 01:30N 16°26' W 062°21'713.7
2017-Dec-09 01:00N 16°32' W 062°24'713.6
2017-Dec-09 00:30N 16°38' W 062°28'714.0
2017-Dec-09 00:00N 16°44' W 062°32'714.1
2017-Dec-08 23:30N 16°50' W 062°35'714.1
2017-Dec-08 23:00N 16°56' W 062°39'713.4
2017-Dec-08 22:27N 17°03' W 062°42'613.6
2017-Dec-08 21:59N 17°09' W 062°43'812.5
2017-Dec-08 21:21N 17°17' W 062°43'3 0.3
2017-Dec-08 09:49N 17°14' W 062°45'911.0
2017-Dec-08 08:59N 17°16' W 062°54'611.9
2017-Dec-08 08:30N 17°19' W 062°60'511.1
2017-Dec-08 08:00N 17°22' W 063°05'610.0
2017-Dec-08 07:25N 17°27' W 063°06'511.2
2017-Dec-08 06:59N 17°32' W 063°06'511.0
2017-Dec-08 06:30N 17°38' W 063°06'611.2
2017-Dec-08 06:00N 17°39' W 063°00'611.8
2017-Dec-08 05:30N 17°39' W 062°54'611.7
2017-Dec-08 05:00N 17°39' W 062°48'611.0
2017-Dec-08 04:27N 17°39' W 062°42'510.5
2017-Dec-08 04:00N 17°39' W 062°37'510.4
2017-Dec-08 03:30N 17°39' W 062°31'510.4
2017-Dec-08 03:00N 17°39' W 062°26'510.2
2017-Dec-08 02:30N 17°39' W 062°20'510.1
2017-Dec-08 02:00N 17°39' W 062°15'5 9.2
2017-Dec-08 01:31N 17°36' W 062°11'611.6
2017-Dec-08 01:00N 17°30' W 062°10'612.0
2017-Dec-08 00:31N 17°24' W 062°09'611.4
2017-Dec-08 00:00N 17°18' W 062°08'510.4
2017-Dec-07 23:31N 17°14' W 062°06'510.5
2017-Dec-07 23:00N 17°11' W 062°01'510.8
2017-Dec-07 22:30N 17°09' W 061°56'5 9.7
2017-Dec-07 22:00N 17°07' W 061°52'1 1.4
2017-Dec-07 21:29N 17°07' W 061°51'0 0.0
2017-Dec-07 20:59N 17°07' W 061°51'0 0.0
2017-Dec-07 20:29N 17°07' W 061°51'0 0.0
2017-Dec-07 19:59N 17°07' W 061°51'0 0.0
2017-Dec-07 19:29N 17°07' W 061°51'0 0.0
2017-Dec-07 18:59N 17°07' W 061°51'0 0.0
2017-Dec-07 18:29N 17°07' W 061°51'0 0.0
2017-Dec-07 17:59N 17°07' W 061°51'0 0.0
2017-Dec-07 17:29N 17°07' W 061°51'0 0.0
2017-Dec-07 16:59N 17°07' W 061°51'0 0.0
2017-Dec-07 16:26N 17°07' W 061°51'0 0.0
2017-Dec-07 15:59N 17°07' W 061°51'0 0.0
2017-Dec-07 15:29N 17°07' W 061°51'0 0.0
2017-Dec-07 14:59N 17°07' W 061°51'0 0.0
2017-Dec-07 14:29N 17°07' W 061°51'0 0.0
2017-Dec-07 13:59N 17°07' W 061°51'0 0.0
2017-Dec-07 13:26N 17°07' W 061°51'0 0.0
2017-Dec-07 12:59N 17°07' W 061°51'0 0.0
2017-Dec-07 12:29N 17°07' W 061°51'0 0.0
2017-Dec-07 11:59N 17°07' W 061°51'0 0.0
2017-Dec-07 11:29N 17°07' W 061°51'0 0.0
2017-Dec-07 11:00N 17°07' W 061°51'2 4.3
2017-Dec-07 10:30N 17°08' W 061°53'4 8.9
2017-Dec-07 10:01N 17°10' W 061°57'4 8.1
2017-Dec-07 09:30N 17°08' W 062°01'5 9.4
2017-Dec-07 09:01N 17°03' W 062°00'510.9
2017-Dec-07 08:31N 16°58' W 061°60'611.1
2017-Dec-07 08:01N 16°52' W 061°59'  
Track history (hours):
 
Tides and Currents Weather Stations Pressure Air Temp Water Temp Dewpoint Dewpoint Depression Visibility Wind Speed Wind Dir Waves Ship Positions

Royal Princess

Last reported at 2017-Dec-17 08:00 UTC. Time now 2017-Dec-17 10:02 UTC.
Position N 12°06' W 067°42'.

Type: Passenger vessel. MMSI: 310530000.

Wind from 090 at 23 knots

Barometer 1012.3 mb
Air temperature 26.5 ° C
Visibility: greater than 10.8 NM
Water temperature 28.0 ° C

Date/timePositionNaut miles runAvg speedWind from/ knotsBaromVisibWave heightAir tempDewpointWater temp
2017-Dec-17 08:00N 12°06' W 067°42'3010.0 090 / 231012.310.8 26.5 28.0
2017-Dec-17 05:00N 12°12' W 067°12'4715.8 270 / 181014.410.8 26.5 28.0
2017-Dec-17 02:00N 12°18' W 066°24'14215.8 060 / 101014.127.0 26.7 28.0
2017-Dec-16 17:00N 12°36' W 064°00'3014.9 080 / 101014.9 5.4 27.5 29.0
2017-Dec-16 15:00N 12°42' W 063°30'13016.2 050 / 151016.210.8 27.5 28.0
2017-Dec-16 07:00N 13°00' W 061°18'100 7.7 030 / 181013.510.8 26.3 28.0
2017-Dec-15 18:00N 13°06' W 059°36'0 0.0 070 / 101013.810.8 33.0 29.0
2017-Dec-15 15:00N 13°06' W 059°36'0 0.0 070 / 81016.310.8 31.0 29.0
2017-Dec-15 11:00N 13°06' W 059°36'0 0.0 090 / 51015.710.8 25.5 29.0
2017-Dec-15 07:00N 13°06' W 059°36'0 0.0 1014.410.8 24.0 28.0
2017-Dec-15 04:00N 13°06' W 059°36'0 0.0 090 / 101014.9 5.4 24.0 28.0
2017-Dec-15 03:00N 13°06' W 059°36'0 0.0 1015.710.8 25.2 29.0
2017-Dec-14 23:00N 13°06' W 059°36'0 0.0 090 / 51014.910.8 26.5 29.0
2017-Dec-14 20:00N 13°06' W 059°36'0 0.0 090 / 131013.5 5.4 34.0 28.5
2017-Dec-14 13:00N 13°06' W 059°36'0 0.0 330 / 12 27.0 28.0
2017-Dec-14 12:00N 13°06' W 059°36'100 2.7 1015.910.8 24.0 28.0
2017-Dec-12 22:23N 14°02' W 061°02'  
2017-Dec-10 17:17N 16°49' W 062°52'3 9.1
2017-Dec-10 16:58N 16°49' W 062°49'11 8.6
2017-Dec-10 15:40N 16°42' W 062°41'1 9.4
2017-Dec-10 15:30N 16°40' W 062°40'5 9.4
2017-Dec-10 15:00N 16°36' W 062°38'5 9.2
2017-Dec-10 14:30N 16°32' W 062°35'5 9.2
2017-Dec-10 14:00N 16°28' W 062°33'5 9.2
2017-Dec-10 13:30N 16°24' W 062°30'5 9.3
2017-Dec-10 12:58N 16°20' W 062°28'4 9.1
2017-Dec-10 12:31N 16°16' W 062°25'5 9.1
2017-Dec-10 11:58N 16°12' W 062°23'98 9.3
2017-Dec-10 01:29N 14°48' W 061°32'7 9.2
2017-Dec-10 00:43N 14°41' W 061°29'2 9.1
2017-Dec-10 00:31N 14°40' W 061°28'4 8.7
2017-Dec-10 00:01N 14°37' W 061°25'4 8.2
2017-Dec-09 23:31N 14°35' W 061°21'5 9.2
2017-Dec-09 22:57N 14°35' W 061°16'4 9.8
2017-Dec-09 22:31N 14°35' W 061°11'5 9.8
2017-Dec-09 22:00N 14°35' W 061°06'2 3.4
2017-Dec-09 21:29N 14°36' W 061°04'0 0.0
2017-Dec-09 20:59N 14°36' W 061°04'0 0.0
2017-Dec-09 20:26N 14°36' W 061°04'0 0.0
2017-Dec-09 19:56N 14°36' W 061°04'0 0.0
2017-Dec-09 19:29N 14°36' W 061°04'0 0.0
2017-Dec-09 18:56N 14°36' W 061°04'0 0.0
2017-Dec-09 18:29N 14°36' W 061°04'0 0.0
2017-Dec-09 17:59N 14°36' W 061°04'0 0.0
2017-Dec-09 17:29N 14°36' W 061°04'0 0.0
2017-Dec-09 16:59N 14°36' W 061°04'0 0.0
2017-Dec-09 16:29N 14°36' W 061°04'0 0.0
2017-Dec-09 15:56N 14°36' W 061°04'0 0.0
2017-Dec-09 15:23N 14°36' W 061°04'0 0.0
2017-Dec-09 14:56N 14°36' W 061°04'0 0.0
2017-Dec-09 14:29N 14°36' W 061°04'0 0.0
2017-Dec-09 13:59N 14°36' W 061°04'0 0.0
2017-Dec-09 13:29N 14°36' W 061°04'0 0.0
2017-Dec-09 12:56N 14°36' W 061°04'0 0.0
2017-Dec-09 12:29N 14°36' W 061°04'0 0.0
2017-Dec-09 11:59N 14°36' W 061°04'1 2.7
2017-Dec-09 11:27N 14°35' W 061°06'3 7.2
2017-Dec-09 11:00N 14°35' W 061°09'4013.2
2017-Dec-09 08:00N 15°08' W 061°32'1113.9
2017-Dec-09 07:14N 15°17' W 061°38'314.2
2017-Dec-09 07:00N 15°20' W 061°40'1014.6
2017-Dec-09 06:17N 15°29' W 061°45'4013.8
2017-Dec-09 03:24N 16°03' W 062°06'614.0
2017-Dec-09 02:58N 16°08' W 062°10'614.0
2017-Dec-09 02:30N 16°14' W 062°13'714.0
2017-Dec-09 02:00N 16°20' W 062°17'714.0
2017-Dec-09 01:30N 16°26' W 062°21'713.7
2017-Dec-09 01:00N 16°32' W 062°24'713.6
2017-Dec-09 00:30N 16°38' W 062°28'714.0
2017-Dec-09 00:00N 16°44' W 062°32'714.1
2017-Dec-08 23:30N 16°50' W 062°35'714.1
2017-Dec-08 23:00N 16°56' W 062°39'713.4
2017-Dec-08 22:27N 17°03' W 062°42'613.6
2017-Dec-08 21:59N 17°09' W 062°43'812.5
2017-Dec-08 21:21N 17°17' W 062°43'3 0.3
2017-Dec-08 09:49N 17°14' W 062°45'911.0
2017-Dec-08 08:59N 17°16' W 062°54'611.9
2017-Dec-08 08:30N 17°19' W 062°60'511.1
2017-Dec-08 08:00N 17°22' W 063°05'610.0
2017-Dec-08 07:25N 17°27' W 063°06'511.2
2017-Dec-08 06:59N 17°32' W 063°06'511.0
2017-Dec-08 06:30N 17°38' W 063°06'611.2
2017-Dec-08 06:00N 17°39' W 063°00'611.8
2017-Dec-08 05:30N 17°39' W 062°54'611.7
2017-Dec-08 05:00N 17°39' W 062°48'611.0
2017-Dec-08 04:27N 17°39' W 062°42'510.5
2017-Dec-08 04:00N 17°39' W 062°37'510.4
2017-Dec-08 03:30N 17°39' W 062°31'510.4
2017-Dec-08 03:00N 17°39' W 062°26'510.2
2017-Dec-08 02:30N 17°39' W 062°20'510.1
2017-Dec-08 02:00N 17°39' W 062°15'5 9.2
2017-Dec-08 01:31N 17°36' W 062°11'611.6
2017-Dec-08 01:00N 17°30' W 062°10'612.0
2017-Dec-08 00:31N 17°24' W 062°09'611.4
2017-Dec-08 00:00N 17°18' W 062°08'510.4
2017-Dec-07 23:31N 17°14' W 062°06'510.5
2017-Dec-07 23:00N 17°11' W 062°01'510.8
2017-Dec-07 22:30N 17°09' W 061°56'5 9.7
2017-Dec-07 22:00N 17°07' W 061°52'1 1.4
2017-Dec-07 21:29N 17°07' W 061°51'0 0.0
2017-Dec-07 20:59N 17°07' W 061°51'0 0.0
2017-Dec-07 20:29N 17°07' W 061°51'0 0.0
2017-Dec-07 19:59N 17°07' W 061°51'0 0.0
2017-Dec-07 19:29N 17°07' W 061°51'0 0.0
2017-Dec-07 18:59N 17°07' W 061°51'0 0.0
2017-Dec-07 18:29N 17°07' W 061°51'0 0.0
2017-Dec-07 17:59N 17°07' W 061°51'0 0.0
2017-Dec-07 17:29N 17°07' W 061°51'0 0.0
2017-Dec-07 16:59N 17°07' W 061°51'0 0.0
2017-Dec-07 16:26N 17°07' W 061°51'0 0.0
2017-Dec-07 15:59N 17°07' W 061°51'0 0.0
2017-Dec-07 15:29N 17°07' W 061°51'0 0.0
2017-Dec-07 14:59N 17°07' W 061°51'0 0.0
2017-Dec-07 14:29N 17°07' W 061°51'0 0.0
2017-Dec-07 13:59N 17°07' W 061°51'0 0.0
2017-Dec-07 13:26N 17°07' W 061°51'0 0.0
2017-Dec-07 12:59N 17°07' W 061°51'0 0.0
2017-Dec-07 12:29N 17°07' W 061°51'0 0.0
2017-Dec-07 11:59N 17°07' W 061°51'0 0.0
2017-Dec-07 11:29N 17°07' W 061°51'0 0.0
2017-Dec-07 11:00N 17°07' W 061°51'2 4.3
2017-Dec-07 10:30N 17°08' W 061°53'4 8.9
2017-Dec-07 10:01N 17°10' W 061°57'4 8.1
2017-Dec-07 09:30N 17°08' W 062°01'5 9.4
2017-Dec-07 09:01N 17°03' W 062°00'510.9
2017-Dec-07 08:31N 16°58' W 061°60'611.1
2017-Dec-07 08:01N 16°52' W 061°59'  

Dump ship's entire track history